Niter, Idaho
Current Conditions -  °F | °C
As of 8:35 AM on Saturday 20 Dec 2014 (Local Time) from KAFO Reporting Station
Haze Haze  
Wind Chill: 27°   Ceiling: 7000
Heat Index: 27°   Visibility: 5mi
Dew Point: 27°   Wind: 0mph
Humidity: 100%   Direction: NA
Pressure: 30.05"   Gusts: NA
Location:  42.5232°N, 111.761°W
Report Text: KAFO 201535Z AUTO 00000KT 5SM BR OVC070 M03/M03 A3005 RMK AO2
Loading
Personal Weather Stations






























Interactive Weather Map New forecast layout! Learn more

10-Day Weather Forecast

Advertisements
Track Severe Weather on mobile